Stations météo

réclame
Mon MeteoGroup
Tarifa, Espagne (8458): Température de l'air & dewpoint: 12.01.2020 14:00:00 - 18.01.2020 14:00:00 (CET)Tarifa, Espagne (8458): Vitesse du vent & gusts: 12.01.2020 14:00:00 - 18.01.2020 14:00:00 (CET)Tarifa, Espagne (8458): Direction du vent: 12.01.2020 14:00:00 - 18.01.2020 14:00:00 (CET)Tarifa, Espagne (8458): reduced air pressure: 12.01.2020 14:00:00 - 18.01.2020 14:00:00 (CET)Tarifa, Espagne (8458): Quantités de précipitations: 12.01.2020 14:00:00 - 18.01.2020 14:00:00 (CET)
Date & Time tt [°C] td [°C] ff [km/h] ff [knt] fx [km/h] fx [knt] dd ppp [hPa] rr [mm]
18.01.2020 14:00:00 - - - - - - - - -
18.01.2020 13:00:00 16,2 11,8 13 7 22 12 WSW 1031,2 -
18.01.2020 12:00:00 15,0 13,2 14 7 22 12 WSW 1031,9 0,0
18.01.2020 11:00:00 14,1 13,2 4 2 10 6 WNW 1032,0 0,0
18.01.2020 10:00:00 13,4 13,1 6 4 15 8 NW 1031,4 0,0
18.01.2020 09:00:00 12,4 12,2 11 6 16 9 NNW 1031,1 0,0
18.01.2020 08:00:00 12,3 12,1 6 3 10 6 NW 1030,4 0,0
18.01.2020 07:00:00 11,8 11,7 5 3 11 6 NNW 1030,1 -
18.01.2020 06:00:00 11,4 11,2 7 4 12 7 NW 1029,9 0,0
18.01.2020 05:00:00 9,8 9,3 4 2 8 5 N 1029,9 0,0
18.01.2020 04:00:00 9,0 8,5 6 3 9 5 N 1030,1 0,0
18.01.2020 03:00:00 9,5 9,0 6 3 8 4 N 1030,5 0,0
18.01.2020 02:00:00 10,5 9,9 5 3 12 7 N 1030,6 0,0
18.01.2020 01:00:00 10,4 9,8 7 4 16 8 NNW 1031,2 -
18.01.2020 00:00:00 11,4 9,9 4 2 14 8 NW 1031,6 0,0
17.01.2020 23:00:00 13,0 11,6 11 6 15 8 NNW 1031,7 0,0
17.01.2020 22:00:00 12,4 11,0 9 5 13 7 NW 1031,8 0,0
17.01.2020 21:00:00 13,3 11,6 8 4 11 6 NW 1031,2 0,0
17.01.2020 20:00:00 14,1 11,6 3 2 11 6 WNW 1031,3 0,0
17.01.2020 19:00:00 14,5 11,8 9 5 17 9 NW 1030,6 -
17.01.2020 18:00:00 14,9 11,4 9 5 20 11 W 1030,5 0,0
17.01.2020 17:00:00 15,5 11,3 10 5 18 10 W 1030,2 0,0
17.01.2020 16:00:00 15,8 10,3 13 7 23 13 W 1030,2 0,0
17.01.2020 15:00:00 16,0 9,9 14 8 26 14 W 1030,5 0,0
17.01.2020 14:00:00 15,9 9,8 11 6 23 12 W 1031,3 0,0
17.01.2020 13:00:00 15,4 9,7 16 8 20 11 WNW 1032,0 -
17.01.2020 12:00:00 15,5 9,4 8 4 17 9 NW 1032,6 0,0
17.01.2020 11:00:00 14,7 8,0 8 4 12 6 NW 1032,9 0,0
17.01.2020 10:00:00 12,6 7,3 4 2 9 5 NNW 1032,0 0,0
17.01.2020 09:00:00 9,3 5,5 8 4 11 6 N 1031,5 0,0
17.01.2020 08:00:00 9,6 6,2 9 5 16 9 NNW 1031,2 0,0
17.01.2020 07:00:00 10,1 7,0 10 5 14 7 NNW 1030,4 -
17.01.2020 06:00:00 9,6 8,3 11 6 14 8 NNW 1030,1 0,0
17.01.2020 05:00:00 8,5 7,8 5 3 10 5 NNE 1029,8 0,0
17.01.2020 04:00:00 7,8 7,4 8 4 10 5 NNE 1030,2 0,0
17.01.2020 03:00:00 8,2 7,7 7 4 10 6 NNE 1030,1 0,0
17.01.2020 02:00:00 7,7 7,1 6 3 8 5 NNE 1029,9 0,0
17.01.2020 01:00:00 8,0 7,1 5 3 8 5 NNE 1030,5 -
17.01.2020 00:00:00 8,4 7,0 4 2 9 5 NNE 1030,2 0,0
16.01.2020 23:00:00 7,9 6,5 7 4 10 5 NNE 1029,8 0,0
16.01.2020 22:00:00 8,2 7,0 7 4 9 5 N 1029,6 0,0
16.01.2020 21:00:00 8,6 7,4 7 4 9 5 NNE 1029,1 0,0
16.01.2020 20:00:00 9,7 8,3 7 4 9 5 NNE 1028,7 0,0
16.01.2020 19:00:00 12,6 10,9 4 2 14 7 NE 1028,2 -
16.01.2020 18:00:00 14,6 11,9 11 6 24 13 E 1027,4 0,0
16.01.2020 17:00:00 15,2 12,1 17 9 27 15 E 1027,2 0,0
16.01.2020 16:00:00 15,6 12,1 18 10 27 15 E 1026,7 0,0
16.01.2020 15:00:00 16,2 11,1 19 10 31 17 E 1026,8 0,0
16.01.2020 14:00:00 15,9 11,4 21 12 33 18 E 1027,2 0,0
16.01.2020 13:00:00 15,8 11,2 22 12 32 17 E 1027,7 -
16.01.2020 12:00:00 15,6 11,6 18 10 29 15 ENE 1028,2 0,0
16.01.2020 11:00:00 14,7 11,3 19 10 31 17 E 1028,3 0,0
16.01.2020 10:00:00 14,1 11,1 19 10 26 14 ENE 1027,5 0,0
16.01.2020 09:00:00 12,6 9,6 19 10 28 15 ENE 1027,1 0,0
16.01.2020 08:00:00 12,3 8,8 17 9 24 13 ENE 1026,9 0,0
16.01.2020 07:00:00 12,2 8,1 14 8 29 16 E 1026,3 -
16.01.2020 06:00:00 11,9 9,4 19 10 26 14 ENE 1026,0 0,0
16.01.2020 05:00:00 12,2 7,8 15 8 22 12 E 1026,3 0,0
16.01.2020 04:00:00 12,7 4,6 12 6 19 10 E 1026,6 0,0
16.01.2020 03:00:00 13,2 4,6 10 5 14 8 E 1026,5 0,0
16.01.2020 02:00:00 12,5 2,9 12 6 14 8 ENE 1026,7 0,0
16.01.2020 01:00:00 9,2 3,8 4 2 9 5 NNE 1027,0 -
16.01.2020 00:00:00 10,1 4,6 5 3 10 5 NNE 1027,2 0,0
15.01.2020 23:00:00 10,2 6,4 9 5 11 6 ENE 1027,0 0,0
15.01.2020 22:00:00 10,5 5,0 7 4 13 7 NE 1027,0 0,0
15.01.2020 21:00:00 11,9 8,0 9 5 14 8 ENE 1027,1 0,0
15.01.2020 20:00:00 12,0 3,8 9 5 13 7 N 1026,9 0,0
15.01.2020 19:00:00 13,8 6,4 8 4 12 6 NNW 1026,3 -
15.01.2020 18:00:00 16,7 6,5 8 5 13 7 NNW 1026,1 0,0
15.01.2020 17:00:00 17,1 7,1 7 4 14 7 NW 1026,0 0,0
15.01.2020 16:00:00 17,6 6,1 6 4 14 8 WNW 1025,6 0,0
15.01.2020 15:00:00 18,4 5,9 8 4 14 7 SW 1025,5 0,0
15.01.2020 14:00:00 16,7 5,6 6 3 12 6 W 1026,0 0,0
15.01.2020 13:00:00 16,5 6,1 7 4 13 7 WSW 1026,3 -
15.01.2020 12:00:00 16,0 8,5 2 1 7 4 WSW 1027,0 0,0
15.01.2020 11:00:00 14,9 8,1 4 2 7 4 SSE 1026,5 0,0
15.01.2020 10:00:00 10,4 7,1 6 4 12 6 NNE 1026,0 0,0
15.01.2020 09:00:00 8,1 5,9 9 5 11 6 NNE 1025,5 0,0
15.01.2020 08:00:00 8,7 6,7 8 5 11 6 NNE 1024,9 0,0
15.01.2020 07:00:00 7,9 7,0 9 5 11 6 NNE 1024,4 -
15.01.2020 06:00:00 7,8 7,1 8 4 9 5 NNE 1024,0 0,0
15.01.2020 05:00:00 7,9 7,3 5 3 8 4 NNE 1024,0 0,0
15.01.2020 04:00:00 8,4 7,7 6 3 9 5 NNE 1024,1 0,0
15.01.2020 03:00:00 8,5 7,6 8 4 10 5 NNE 1024,2 0,0
15.01.2020 02:00:00 8,2 6,8 8 4 9 5 NNE 1024,2 0,0
15.01.2020 01:00:00 8,5 7,0 7 4 9 5 NNE 1024,4 -
15.01.2020 00:00:00 9,3 6,5 8 4 10 5 N 1024,5 0,0
14.01.2020 23:00:00 9,4 6,2 5 3 10 6 N 1024,4 0,0
14.01.2020 22:00:00 10,6 6,7 9 5 16 9 N 1024,1 0,0
14.01.2020 21:00:00 11,6 7,7 15 8 19 10 N 1024,0 0,0
14.01.2020 20:00:00 12,0 8,5 11 6 17 9 NNW 1023,9 0,0
14.01.2020 19:00:00 13,7 10,2 8 4 19 10 WNW 1023,6 -
14.01.2020 18:00:00 14,3 9,7 12 6 21 11 W 1023,4 0,0
14.01.2020 17:00:00 15,2 9,6 13 7 21 12 W 1023,3 0,0
14.01.2020 16:00:00 15,8 9,2 14 7 25 13 WSW 1022,7 0,0
14.01.2020 15:00:00 15,1 10,3 15 8 24 13 W 1023,0 0,0
14.01.2020 14:00:00 14,6 10,0 15 8 26 14 W 1023,7 0,0
14.01.2020 13:00:00 14,3 9,6 15 8 27 15 W 1024,4 -
14.01.2020 12:00:00 14,2 11,2 19 10 29 16 SW 1025,0 0,0
14.01.2020 11:00:00 14,0 10,6 18 10 27 15 SW 1024,8 0,0
14.01.2020 10:00:00 13,7 10,6 14 8 26 14 SSW 1024,1 0,0
14.01.2020 09:00:00 11,8 10,4 8 4 17 9 SW 1023,5 0,0
14.01.2020 08:00:00 9,9 9,3 5 3 9 5 N 1023,5 0,0
14.01.2020 07:00:00 10,5 9,4 2 1 13 7 NW 1022,9 -
14.01.2020 06:00:00 10,0 9,6 4 2 9 5 N 1022,9 0,0
14.01.2020 05:00:00 9,3 9,0 6 4 9 5 N 1022,9 0,0
14.01.2020 04:00:00 8,6 8,0 2 1 12 6 NNW 1023,1 0,0
14.01.2020 03:00:00 9,1 8,5 5 3 9 5 NNE 1023,2 0,0
14.01.2020 02:00:00 9,1 8,5 6 4 9 5 NNE 1023,7 0,0
14.01.2020 01:00:00 7,8 7,0 5 3 9 5 NNE 1024,0 -
14.01.2020 00:00:00 8,4 7,3 5 3 9 5 NNE 1024,5 0,0
13.01.2020 23:00:00 10,1 8,3 5 3 11 6 NNE 1024,2 0,0
13.01.2020 22:00:00 10,5 8,4 9 5 13 7 NE 1024,3 0,0
13.01.2020 21:00:00 11,6 9,0 9 5 15 8 ENE 1024,9 0,0
13.01.2020 20:00:00 11,7 9,3 10 5 18 10 ENE 1024,9 0,0
13.01.2020 19:00:00 12,1 9,4 12 6 24 13 ENE 1024,7 -
13.01.2020 18:00:00 13,3 9,7 16 9 27 15 E 1024,5 0,0
13.01.2020 17:00:00 14,5 10,3 19 10 32 18 E 1024,4 0,0
13.01.2020 16:00:00 14,8 10,4 20 11 31 17 E 1024,6 0,0
13.01.2020 15:00:00 14,9 9,9 20 11 31 17 E 1024,6 0,0
13.01.2020 14:00:00 15,1 9,4 21 11 33 18 E 1025,5 0,0
13.01.2020 13:00:00 15,2 9,9 19 11 41 22 ENE 1026,3 -
13.01.2020 12:00:00 14,7 10,2 24 13 39 21 E 1026,7 0,0
13.01.2020 11:00:00 14,2 9,7 21 11 36 19 ENE 1026,6 0,0
13.01.2020 10:00:00 13,5 9,6 19 11 37 20 ENE 1026,5 0,0
13.01.2020 09:00:00 12,2 9,0 22 12 37 20 ENE 1025,8 0,0
13.01.2020 08:00:00 12,1 8,9 21 12 35 19 ENE 1026,1 0,0
13.01.2020 07:00:00 12,2 9,2 21 11 35 19 ENE 1025,9 -
13.01.2020 06:00:00 12,1 8,9 23 12 36 19 ENE 1026,0 0,0
13.01.2020 05:00:00 12,1 8,9 20 11 37 20 ENE 1026,2 0,0
13.01.2020 04:00:00 12,2 8,8 24 13 39 21 ENE 1026,5 0,0
13.01.2020 03:00:00 12,2 9,2 23 13 36 19 ENE 1026,6 0,0
13.01.2020 02:00:00 12,1 9,2 18 10 34 19 ENE 1027,3 0,0
13.01.2020 01:00:00 12,2 8,8 18 10 29 16 ENE 1027,8 -
13.01.2020 00:00:00 12,5 8,9 18 10 32 17 ENE 1028,5 0,0
12.01.2020 23:00:00 12,5 8,9 18 10 29 16 ENE 1028,1 0,0
12.01.2020 22:00:00 11,9 9,0 11 6 26 14 ENE 1028,1 0,0
12.01.2020 21:00:00 13,0 9,4 14 8 29 16 E 1027,9 0,0
12.01.2020 20:00:00 13,2 9,0 17 9 31 17 E 1028,1 0,0
12.01.2020 19:00:00 13,5 9,9 16 9 27 15 E 1027,5 -
12.01.2020 18:00:00 14,2 9,4 14 8 25 13 E 1027,4 0,0
12.01.2020 17:00:00 14,6 10,8 16 9 26 14 ENE 1027,5 0,0
12.01.2020 16:00:00 15,2 10,6 14 8 29 16 ENE 1027,7 0,0
12.01.2020 15:00:00 15,4 10,5 14 8 31 17 ENE 1027,8 0,0
12.01.2020 14:00:00 15,5 10,0 18 10 31 17 ENE 1028,4 0,0

tt = Température de l'air
td = dewpoint
ff = Vitesse du vent
fx = gusts
dd = Direction du vent
ppp = reduced air pressure
rr = Quantités de précipitations

stations d'obs. à proximité